sensor_id;sensor_type;location;lat;lon;timestamp;pressure;altitude;pressure_sealevel;temperature;humidity
34073;BME280;20346;52.702;16.886;2022-09-03T00:00:58;101493.52;;;12.22;56.09
34073;BME280;20346;52.702;16.886;2022-09-03T00:03:50;101497.86;;;12.18;56.19
34073;BME280;20346;52.702;16.886;2022-09-03T00:06:42;101497.90;;;12.14;56.29
34073;BME280;20346;52.702;16.886;2022-09-03T00:09:48;101497.92;;;12.11;56.49
34073;BME280;20346;52.702;16.886;2022-09-03T00:12:39;101493.63;;;12.08;56.48
34073;BME280;20346;52.702;16.886;2022-09-03T00:15:27;101494.50;;;12.07;56.56
34073;BME280;20346;52.702;16.886;2022-09-03T00:18:14;101489.76;;;12.05;56.64
34073;BME280;20346;52.702;16.886;2022-09-03T00:21:04;101488.92;;;12.02;57.36
34073;BME280;20346;52.702;16.886;2022-09-03T00:24:02;101488.08;;;12.00;56.77
34073;BME280;20346;52.702;16.886;2022-09-03T00:26:50;101484.63;;;11.99;56.86
34073;BME280;20346;52.702;16.886;2022-09-03T00:29:49;101481.61;;;11.98;56.91
34073;BME280;20346;52.702;16.886;2022-09-03T00:35:46;101480.36;;;11.95;57.06
34073;BME280;20346;52.702;16.886;2022-09-03T00:38:37;101485.58;;;11.92;57.16
34073;BME280;20346;52.702;16.886;2022-09-03T00:44:35;101480.83;;;11.91;57.29
34073;BME280;20346;52.702;16.886;2022-09-03T00:54:05;101474.80;;;11.88;57.53
34073;BME280;20346;52.702;16.886;2022-09-03T01:00:14;101477.41;;;11.86;57.66
34073;BME280;20346;52.702;16.886;2022-09-03T01:21:29;101463.21;;;11.74;58.21
34073;BME280;20346;52.702;16.886;2022-09-03T01:31:00;101458.07;;;11.68;58.45
34073;BME280;20346;52.702;16.886;2022-09-03T01:37:21;101458.96;;;11.64;58.59
34073;BME280;20346;52.702;16.886;2022-09-03T01:46:18;101462.44;;;11.61;58.75
34073;BME280;20346;52.702;16.886;2022-09-03T01:52:21;101469.80;;;11.56;58.87
34073;BME280;20346;52.702;16.886;2022-09-03T01:55:35;101471.98;;;11.53;58.96
34073;BME280;20346;52.702;16.886;2022-09-03T01:58:53;101465.09;;;11.51;59.03
34073;BME280;20346;52.702;16.886;2022-09-03T02:05:11;101466.41;;;11.48;59.20
34073;BME280;20346;52.702;16.886;2022-09-03T02:10:55;101468.58;;;11.45;59.31
34073;BME280;20346;52.702;16.886;2022-09-03T02:13:52;101466.89;;;11.43;59.38
34073;BME280;20346;52.702;16.886;2022-09-03T02:16:38;101462.16;;;11.41;59.46
34073;BME280;20346;52.702;16.886;2022-09-03T02:19:23;101467.34;;;11.39;59.56
34073;BME280;20346;52.702;16.886;2022-09-03T02:22:11;101469.09;;;11.37;59.59
34073;BME280;20346;52.702;16.886;2022-09-03T02:24:56;101461.33;;;11.36;59.66
34073;BME280;20346;52.702;16.886;2022-09-03T02:27:42;101459.17;;;11.35;59.75
34073;BME280;20346;52.702;16.886;2022-09-03T02:30:27;101463.05;;;11.35;59.81
34073;BME280;20346;52.702;16.886;2022-09-03T02:33:13;101449.68;;;11.34;59.86
34073;BME280;20346;52.702;16.886;2022-09-03T02:35:59;101454.00;;;11.34;59.94
34073;BME280;20346;52.702;16.886;2022-09-03T02:38:45;101456.18;;;11.30;59.98
34073;BME280;20346;52.702;16.886;2022-09-03T02:41:31;101452.31;;;11.26;60.05
34073;BME280;20346;52.702;16.886;2022-09-03T02:44:25;101452.75;;;11.26;60.11
34073;BME280;20346;52.702;16.886;2022-09-03T02:47:15;101448.88;;;11.24;60.17
34073;BME280;20346;52.702;16.886;2022-09-03T02:50:02;101443.26;;;11.25;60.23
34073;BME280;20346;52.702;16.886;2022-09-03T02:52:47;101450.59;;;11.24;60.31
34073;BME280;20346;52.702;16.886;2022-09-03T02:55:32;101451.90;;;11.22;60.34
34073;BME280;20346;52.702;16.886;2022-09-03T02:58:17;101451.04;;;11.22;60.43
34073;BME280;20346;52.702;16.886;2022-09-03T03:01:02;101446.72;;;11.22;60.47
34073;BME280;20346;52.702;16.886;2022-09-03T03:03:47;101447.16;;;11.20;60.49
34073;BME280;20346;52.702;16.886;2022-09-03T03:06:33;101445.46;;;11.16;60.76
34073;BME280;20346;52.702;16.886;2022-09-03T03:09:18;101441.58;;;11.15;60.69
34073;BME280;20346;52.702;16.886;2022-09-03T03:12:03;101443.31;;;11.14;60.71
34073;BME280;20346;52.702;16.886;2022-09-03T03:14:48;101442.45;;;11.12;60.76
34073;BME280;20346;52.702;16.886;2022-09-03T03:17:33;101446.77;;;11.12;60.84
34073;BME280;20346;52.702;16.886;2022-09-03T03:20:18;101449.36;;;11.13;60.84
34073;BME280;20346;52.702;16.886;2022-09-03T03:23:04;101449.36;;;11.12;60.93
34073;BME280;20346;52.702;16.886;2022-09-03T03:25:49;101452.81;;;11.12;60.97
34073;BME280;20346;52.702;16.886;2022-09-03T03:28:35;101451.95;;;11.10;61.05
34073;BME280;20346;52.702;16.886;2022-09-03T03:31:20;101455.84;;;11.09;61.10
34073;BME280;20346;52.702;16.886;2022-09-03T03:34:06;101454.13;;;11.08;61.15
34073;BME280;20346;52.702;16.886;2022-09-03T03:36:51;101455.44;;;11.05;61.19
34073;BME280;20346;52.702;16.886;2022-09-03T03:39:36;101453.71;;;11.04;61.25
34073;BME280;20346;52.702;16.886;2022-09-03T03:42:21;101454.15;;;11.03;61.28
34073;BME280;20346;52.702;16.886;2022-09-03T03:45:07;101451.99;;;11.03;61.30
34073;BME280;20346;52.702;16.886;2022-09-03T03:47:57;101449.85;;;10.99;61.41
34073;BME280;20346;52.702;16.886;2022-09-03T03:50:42;101453.73;;;10.99;61.46
34073;BME280;20346;52.702;16.886;2022-09-03T03:53:28;101452.02;;;10.98;61.50
34073;BME280;20346;52.702;16.886;2022-09-03T03:56:14;101453.31;;;10.97;61.55
34073;BME280;20346;52.702;16.886;2022-09-03T03:59:00;101452.45;;;10.96;61.60
34073;BME280;20346;52.702;16.886;2022-09-03T04:01:47;101448.58;;;10.93;61.64
34073;BME280;20346;52.702;16.886;2022-09-03T04:04:33;101448.58;;;10.93;61.68
34073;BME280;20346;52.702;16.886;2022-09-03T04:07:18;101448.16;;;10.92;61.77
34073;BME280;20346;52.702;16.886;2022-09-03T04:10:05;101443.45;;;10.91;61.80
34073;BME280;20346;52.702;16.886;2022-09-03T04:12:55;101446.86;;;10.92;61.87
34073;BME280;20346;52.702;16.886;2022-09-03T04:15:40;101452.46;;;10.93;61.92
34073;BME280;20346;52.702;16.886;2022-09-03T04:18:25;101450.30;;;10.94;61.92
34073;BME280;20346;52.702;16.886;2022-09-03T04:21:13;101453.75;;;10.94;61.96
34073;BME280;20346;52.702;16.886;2022-09-03T04:23:59;101452.88;;;10.95;62.02
34073;BME280;20346;52.702;16.886;2022-09-03T04:26:44;101458.49;;;10.95;62.06
34073;BME280;20346;52.702;16.886;2022-09-03T04:29:30;101456.77;;;10.94;62.13
34073;BME280;20346;52.702;16.886;2022-09-03T04:32:15;101463.67;;;10.93;62.21
34073;BME280;20346;52.702;16.886;2022-09-03T04:35:19;101464.11;;;10.93;62.27
34073;BME280;20346;52.702;16.886;2022-09-03T04:38:05;101467.13;;;10.94;62.29
34073;BME280;20346;52.702;16.886;2022-09-03T04:40:53;101461.09;;;10.93;62.37
34073;BME280;20346;52.702;16.886;2022-09-03T04:43:39;101465.39;;;10.94;62.41
34073;BME280;20346;52.702;16.886;2022-09-03T04:46:27;101465.38;;;10.98;62.44
34073;BME280;20346;52.702;16.886;2022-09-03T04:49:16;101464.95;;;11.00;62.50
34073;BME280;20346;52.702;16.886;2022-09-03T04:52:02;101463.22;;;11.00;62.55
34073;BME280;20346;52.702;16.886;2022-09-03T04:54:47;101474.86;;;11.00;62.59
34073;BME280;20346;52.702;16.886;2022-09-03T04:57:33;101473.55;;;11.03;62.67
34073;BME280;20346;52.702;16.886;2022-09-03T05:00:19;101469.24;;;11.04;62.68
34073;BME280;20346;52.702;16.886;2022-09-03T05:03:04;101464.92;;;11.06;62.75
34073;BME280;20346;52.702;16.886;2022-09-03T05:05:54;101472.67;;;11.09;62.78
34073;BME280;20346;52.702;16.886;2022-09-03T05:08:39;101474.38;;;11.13;62.84
34073;BME280;20346;52.702;16.886;2022-09-03T05:11:25;101478.67;;;11.18;62.91
34073;BME280;20346;52.702;16.886;2022-09-03T05:14:11;101485.10;;;11.27;62.99
34073;BME280;20346;52.702;16.886;2022-09-03T05:16:56;101486.77;;;11.39;63.04
34073;BME280;20346;52.702;16.886;2022-09-03T05:19:41;101487.53;;;11.52;63.09
34073;BME280;20346;52.702;16.886;2022-09-03T05:22:26;101483.11;;;11.69;63.33
34073;BME280;20346;52.702;16.886;2022-09-03T05:25:12;101481.27;;;11.89;63.19
34073;BME280;20346;52.702;16.886;2022-09-03T05:27:58;101490.16;;;12.09;63.18
34073;BME280;20346;52.702;16.886;2022-09-03T05:30:43;101487.03;;;12.22;63.18
34073;BME280;20346;52.702;16.886;2022-09-03T05:33:28;101484.75;;;12.35;63.19
34073;BME280;20346;52.702;16.886;2022-09-03T05:36:16;101483.69;;;12.53;63.23
34073;BME280;20346;52.702;16.886;2022-09-03T05:39:04;101490.76;;;12.79;63.37
34073;BME280;20346;52.702;16.886;2022-09-03T05:41:49;101483.46;;;13.09;63.32
34073;BME280;20346;52.702;16.886;2022-09-03T05:44:34;101477.56;;;13.32;63.41
34073;BME280;20346;52.702;16.886;2022-09-03T05:47:20;101483.81;;;13.50;63.24
34073;BME280;20346;52.702;16.886;2022-09-03T05:50:07;101480.55;;;13.65;63.16
34073;BME280;20346;52.702;16.886;2022-09-03T05:52:53;101478.83;;;13.92;63.27
34073;BME280;20346;52.702;16.886;2022-09-03T05:55:38;101469.03;;;14.32;63.29
34073;BME280;20346;52.702;16.886;2022-09-03T05:58:23;101481.48;;;14.62;63.08
34073;BME280;20346;52.702;16.886;2022-09-03T06:01:20;101472.86;;;14.82;63.10
34073;BME280;20346;52.702;16.886;2022-09-03T06:04:12;101472.45;;;15.02;63.00
34073;BME280;20346;52.702;16.886;2022-09-03T06:06:58;101472.08;;;15.19;63.01
34073;BME280;20346;52.702;16.886;2022-09-03T06:09:42;101477.69;;;15.41;62.99
34073;BME280;20346;52.702;16.886;2022-09-03T06:12:28;101473.49;;;15.72;62.98
34073;BME280;20346;52.702;16.886;2022-09-03T06:15:13;101473.20;;;16.18;63.11
34073;BME280;20346;52.702;16.886;2022-09-03T06:17:58;101473.31;;;16.95;63.15
34073;BME280;20346;52.702;16.886;2022-09-03T06:20:43;101465.84;;;17.68;63.00
34073;BME280;20346;52.702;16.886;2022-09-03T06:23:33;101472.44;;;18.44;63.02
34073;BME280;20346;52.702;16.886;2022-09-03T06:26:19;101478.55;;;19.16;62.80
34073;BME280;20346;52.702;16.886;2022-09-03T06:29:04;101482.32;;;19.87;62.70
34073;BME280;20346;52.702;16.886;2022-09-03T06:31:49;101480.73;;;20.55;62.36
34073;BME280;20346;52.702;16.886;2022-09-03T06:34:34;101482.94;;;21.03;62.07
34073;BME280;20346;52.702;16.886;2022-09-03T06:37:19;101485.02;;;21.62;61.94
34073;BME280;20346;52.702;16.886;2022-09-03T06:40:05;101483.70;;;22.24;61.76
34073;BME280;20346;52.702;16.886;2022-09-03T06:42:56;101487.83;;;22.80;61.39
34073;BME280;20346;52.702;16.886;2022-09-03T06:46:03;101486.52;;;23.35;60.98
34073;BME280;20346;52.702;16.886;2022-09-03T06:48:44;101477.59;;;23.76;60.57
34073;BME280;20346;52.702;16.886;2022-09-03T06:51:30;101487.64;;;24.23;60.22
34073;BME280;20346;52.702;16.886;2022-09-03T06:54:16;101490.73;;;24.66;59.33
34073;BME280;20346;52.702;16.886;2022-09-03T06:57:01;101488.09;;;25.02;59.78
34073;BME280;20346;52.702;16.886;2022-09-03T06:59:47;101485.80;;;25.51;59.36
34073;BME280;20346;52.702;16.886;2022-09-03T07:02:32;101485.17;;;26.14;59.02
34073;BME280;20346;52.702;16.886;2022-09-03T07:05:17;101483.31;;;26.67;58.47
34073;BME280;20346;52.702;16.886;2022-09-03T07:08:02;101490.91;;;27.28;58.21
34073;BME280;20346;52.702;16.886;2022-09-03T07:10:48;101487.61;;;27.85;57.46
34073;BME280;20346;52.702;16.886;2022-09-03T07:13:40;101483.92;;;28.10;56.94
34073;BME280;20346;52.702;16.886;2022-09-03T07:16:29;101481.02;;;28.64;56.89
34073;BME280;20346;52.702;16.886;2022-09-03T07:19:21;101484.03;;;29.16;55.96
34073;BME280;20346;52.702;16.886;2022-09-03T07:22:06;101487.41;;;29.29;55.14
34073;BME280;20346;52.702;16.886;2022-09-03T07:24:52;101482.45;;;29.41;54.65
34073;BME280;20346;52.702;16.886;2022-09-03T07:27:38;101480.52;;;29.70;53.20
34073;BME280;20346;52.702;16.886;2022-09-03T07:30:23;101477.48;;;29.69;52.61
34073;BME280;20346;52.702;16.886;2022-09-03T07:33:09;101488.47;;;29.81;51.81
34073;BME280;20346;52.702;16.886;2022-09-03T07:35:54;101493.59;;;29.73;51.25
34073;BME280;20346;52.702;16.886;2022-09-03T07:38:40;101494.45;;;29.68;51.03
34073;BME280;20346;52.702;16.886;2022-09-03T07:41:29;101494.52;;;29.83;49.99
34073;BME280;20346;52.702;16.886;2022-09-03T07:44:17;101495.96;;;29.87;48.47
34073;BME280;20346;52.702;16.886;2022-09-03T07:47:02;101492.61;;;29.47;48.33
34073;BME280;20346;52.702;16.886;2022-09-03T07:49:48;101497.09;;;29.24;48.31
34073;BME280;20346;52.702;16.886;2022-09-03T07:52:33;101496.47;;;29.38;47.66
34073;BME280;20346;52.702;16.886;2022-09-03T07:55:18;101494.25;;;28.88;46.91
34073;BME280;20346;52.702;16.886;2022-09-03T07:58:03;101500.73;;;28.40;46.66
34073;BME280;20346;52.702;16.886;2022-09-03T08:00:49;101499.41;;;29.18;46.11
34073;BME280;20346;52.702;16.886;2022-09-03T08:03:35;101492.97;;;30.27;44.78
34073;BME280;20346;52.702;16.886;2022-09-03T08:06:24;101492.99;;;31.53;44.10
34073;BME280;20346;52.702;16.886;2022-09-03T08:09:11;101492.91;;;32.27;43.01
34073;BME280;20346;52.702;16.886;2022-09-03T08:11:56;101499.20;;;33.19;42.64
34073;BME280;20346;52.702;16.886;2022-09-03T08:14:42;101491.41;;;34.14;42.12
34073;BME280;20346;52.702;16.886;2022-09-03T08:17:27;101493.06;;;34.97;41.64
34073;BME280;20346;52.702;16.886;2022-09-03T08:20:12;101493.23;;;35.54;40.75
34073;BME280;20346;52.702;16.886;2022-09-03T08:23:01;101479.83;;;35.83;40.33
34073;BME280;20346;52.702;16.886;2022-09-03T08:25:46;101491.58;;;35.94;40.19
34073;BME280;20346;52.702;16.886;2022-09-03T08:28:31;101488.46;;;36.54;39.59
34073;BME280;20346;52.702;16.886;2022-09-03T08:31:19;101491.76;;;37.15;38.92
34073;BME280;20346;52.702;16.886;2022-09-03T08:34:06;101489.97;;;37.38;38.72
34073;BME280;20346;52.702;16.886;2022-09-03T08:36:51;101487.87;;;37.44;38.13
34073;BME280;20346;52.702;16.886;2022-09-03T08:39:37;101490.55;;;37.49;37.53
34073;BME280;20346;52.702;16.886;2022-09-03T08:42:49;101479.80;;;36.27;36.79
34073;BME280;20346;52.702;16.886;2022-09-03T08:45:44;101483.84;;;33.92;37.00
34073;BME280;20346;52.702;16.886;2022-09-03T08:48:30;101476.38;;;31.50;37.13
34073;BME280;20346;52.702;16.886;2022-09-03T08:51:18;101473.91;;;29.85;36.87
34073;BME280;20346;52.702;16.886;2022-09-03T08:54:06;101475.47;;;28.51;37.09
34073;BME280;20346;52.702;16.886;2022-09-03T08:56:53;101478.33;;;27.43;36.59
34073;BME280;20346;52.702;16.886;2022-09-03T08:59:39;101472.30;;;26.48;36.14
34073;BME280;20346;52.702;16.886;2022-09-03T09:05:48;101465.98;;;24.96;35.97
34073;BME280;20346;52.702;16.886;2022-09-03T09:15:41;101459.26;;;23.03;35.51
34073;BME280;20346;52.702;16.886;2022-09-03T09:19:15;101452.58;;;22.48;35.53
34073;BME280;20346;52.702;16.886;2022-09-03T09:22:35;101446.59;;;22.20;35.47
34073;BME280;20346;52.702;16.886;2022-09-03T09:25:27;101449.95;;;21.87;35.49
34073;BME280;20346;52.702;16.886;2022-09-03T09:28:19;101439.42;;;21.61;35.55
34073;BME280;20346;52.702;16.886;2022-09-03T09:31:09;101447.27;;;21.44;35.53
34073;BME280;20346;52.702;16.886;2022-09-03T09:34:05;101436.34;;;21.26;35.54
34073;BME280;20346;52.702;16.886;2022-09-03T09:36:53;101451.80;;;21.13;35.50
34073;BME280;20346;52.702;16.886;2022-09-03T09:39:40;101451.80;;;20.94;35.66
34073;BME280;20346;52.702;16.886;2022-09-03T09:42:27;101445.00;;;20.80;35.64
34073;BME280;20346;52.702;16.886;2022-09-03T09:45:14;101449.12;;;20.67;35.68
34073;BME280;20346;52.702;16.886;2022-09-03T09:48:01;101447.04;;;20.55;35.73
34073;BME280;20346;52.702;16.886;2022-09-03T09:50:48;101438.77;;;20.43;35.76
34073;BME280;20346;52.702;16.886;2022-09-03T09:53:33;101437.66;;;20.39;35.88
34073;BME280;20346;52.702;16.886;2022-09-03T09:56:23;101444.72;;;20.37;35.94
34073;BME280;20346;52.702;16.886;2022-09-03T09:59:10;101430.47;;;20.32;35.95
34073;BME280;20346;52.702;16.886;2022-09-03T10:02:22;101435.23;;;20.24;35.94
34073;BME280;20346;52.702;16.886;2022-09-03T10:05:13;101429.52;;;20.25;36.15
34073;BME280;20346;52.702;16.886;2022-09-03T10:08:03;101428.41;;;20.20;36.08
34073;BME280;20346;52.702;16.886;2022-09-03T10:10:50;101433.27;;;20.19;36.10
34073;BME280;20346;52.702;16.886;2022-09-03T10:13:42;101425.25;;;20.22;36.26
34073;BME280;20346;52.702;16.886;2022-09-03T10:16:32;101424.59;;;20.27;36.23
34073;BME280;20346;52.702;16.886;2022-09-03T10:19:27;101417.31;;;20.24;36.33
34073;BME280;20346;52.702;16.886;2022-09-03T10:22:16;101414.42;;;20.20;36.35
34073;BME280;20346;52.702;16.886;2022-09-03T10:25:04;101415.56;;;20.33;36.50
34073;BME280;20346;52.702;16.886;2022-09-03T10:27:51;101409.48;;;20.42;36.52
34073;BME280;20346;52.702;16.886;2022-09-03T10:34:20;101415.38;;;20.58;36.69
34073;BME280;20346;52.702;16.886;2022-09-03T10:37:37;101414.24;;;20.63;36.64
34073;BME280;20346;52.702;16.886;2022-09-03T10:40:41;101412.95;;;20.53;36.66
34073;BME280;20346;52.702;16.886;2022-09-03T10:49:58;101396.28;;;20.73;36.75
34073;BME280;20346;52.702;16.886;2022-09-03T10:59:50;101383.52;;;21.20;36.95
34073;BME280;20346;52.702;16.886;2022-09-03T11:06:27;101383.67;;;21.53;37.05
34073;BME280;20346;52.702;16.886;2022-09-03T11:09:22;101384.75;;;21.49;37.05
34073;BME280;20346;52.702;16.886;2022-09-03T11:12:28;101386.28;;;21.44;37.01
34073;BME280;20346;52.702;16.886;2022-09-03T11:21:12;101377.50;;;20.99;36.94
34073;BME280;20346;52.702;16.886;2022-09-03T11:24:15;101365.95;;;20.93;37.07
34073;BME280;20346;52.702;16.886;2022-09-03T11:30:32;101380.23;;;21.06;37.01
34073;BME280;20346;52.702;16.886;2022-09-03T11:33:13;101376.97;;;21.01;37.09
34073;BME280;20346;52.702;16.886;2022-09-03T11:36:04;101364.38;;;21.08;37.12
34073;BME280;20346;52.702;16.886;2022-09-03T11:38:50;101360.14;;;21.14;37.17
34073;BME280;20346;52.702;16.886;2022-09-03T11:41:36;101365.87;;;21.13;37.05
34073;BME280;20346;52.702;16.886;2022-09-03T11:44:21;101370.48;;;21.08;37.04
34073;BME280;20346;52.702;16.886;2022-09-03T11:47:22;101366.16;;;21.07;37.07
34073;BME280;20346;52.702;16.886;2022-09-03T11:50:28;101373.66;;;21.06;37.07
34073;BME280;20346;52.702;16.886;2022-09-03T11:56:17;101348.74;;;21.05;37.21
34073;BME280;20346;52.702;16.886;2022-09-03T11:59:16;101352.01;;;21.10;37.13
34073;BME280;20346;52.702;16.886;2022-09-03T12:14:45;101335.30;;;21.11;37.21
34073;BME280;20346;52.702;16.886;2022-09-03T12:18:03;101339.33;;;21.09;37.16
34073;BME280;20346;52.702;16.886;2022-09-03T12:21:05;101337.52;;;21.01;37.17
34073;BME280;20346;52.702;16.886;2022-09-03T12:23:52;101321.11;;;20.96;37.20
34073;BME280;20346;52.702;16.886;2022-09-03T12:26:40;101316.53;;;20.91;37.21
34073;BME280;20346;52.702;16.886;2022-09-03T12:29:27;101312.52;;;20.93;37.27
34073;BME280;20346;52.702;16.886;2022-09-03T12:32:13;101309.84;;;21.03;37.31
34073;BME280;20346;52.702;16.886;2022-09-03T12:35:09;101314.66;;;21.12;37.34
34073;BME280;20346;52.702;16.886;2022-09-03T12:37:58;101304.37;;;21.16;37.19
34073;BME280;20346;52.702;16.886;2022-09-03T12:40:43;101297.55;;;21.12;37.23
34073;BME280;20346;52.702;16.886;2022-09-03T12:43:28;101304.28;;;21.09;37.25
34073;BME280;20346;52.702;16.886;2022-09-03T12:46:14;101294.59;;;21.01;37.24
34073;BME280;20346;52.702;16.886;2022-09-03T12:49:02;101303.48;;;20.98;37.29
34073;BME280;20346;52.702;16.886;2022-09-03T12:51:49;101294.11;;;20.93;37.33
34073;BME280;20346;52.702;16.886;2022-09-03T12:54:39;101295.26;;;20.87;37.34
34073;BME280;20346;52.702;16.886;2022-09-03T12:57:33;101293.55;;;20.86;37.35
34073;BME280;20346;52.702;16.886;2022-09-03T13:00:21;101279.05;;;20.96;37.37
34073;BME280;20346;52.702;16.886;2022-09-03T13:03:11;101284.09;;;21.09;37.24
34073;BME280;20346;52.702;16.886;2022-09-03T13:06:11;101278.45;;;21.17;37.24
34073;BME280;20346;52.702;16.886;2022-09-03T13:09:03;101274.48;;;21.27;37.24
34073;BME280;20346;52.702;16.886;2022-09-03T13:11:50;101275.53;;;21.40;37.33
34073;BME280;20346;52.702;16.886;2022-09-03T13:14:46;101270.12;;;21.52;37.31
34073;BME280;20346;52.702;16.886;2022-09-03T13:30:22;101277.53;;;21.78;37.06
34073;BME280;20346;52.702;16.886;2022-09-03T13:33:17;101279.47;;;21.75;37.01
34073;BME280;20346;52.702;16.886;2022-09-03T13:36:16;101267.55;;;21.76;37.14
34073;BME280;20346;52.702;16.886;2022-09-03T13:42:21;101278.77;;;21.71;37.08
34073;BME280;20346;52.702;16.886;2022-09-03T13:45:34;101270.73;;;21.66;37.02
34073;BME280;20346;52.702;16.886;2022-09-03T13:48:30;101265.39;;;21.59;36.94
34073;BME280;20346;52.702;16.886;2022-09-03T13:52:02;101269.66;;;21.44;36.94
34073;BME280;20346;52.702;16.886;2022-09-03T13:54:53;101269.66;;;21.35;36.99
34073;BME280;20346;52.702;16.886;2022-09-03T14:03:59;101251.69;;;21.09;36.98
34073;BME280;20346;52.702;16.886;2022-09-03T14:07:00;101257.56;;;21.05;37.04
34073;BME280;20346;52.702;16.886;2022-09-03T14:10:03;101257.25;;;21.03;37.08
34073;BME280;20346;52.702;16.886;2022-09-03T14:13:01;101248.58;;;21.01;37.07
34073;BME280;20346;52.702;16.886;2022-09-03T14:22:00;101256.08;;;21.00;36.73
34073;BME280;20346;52.702;16.886;2022-09-03T14:24:56;101247.02;;;20.97;36.87
34073;BME280;20346;52.702;16.886;2022-09-03T14:27:44;101244.23;;;20.91;36.92
34073;BME280;20346;52.702;16.886;2022-09-03T14:39:33;101242.78;;;21.03;37.01
34073;BME280;20346;52.702;16.886;2022-09-03T14:52:06;101256.99;;;21.26;36.98
34073;BME280;20346;52.702;16.886;2022-09-03T15:01:28;101256.73;;;21.39;36.86
34073;BME280;20346;52.702;16.886;2022-09-03T15:07:52;101264.86;;;21.43;36.88
34073;BME280;20346;52.702;16.886;2022-09-03T15:10:46;101253.02;;;21.43;36.95
34073;BME280;20346;52.702;16.886;2022-09-03T15:13:45;101254.02;;;21.41;36.91
34073;BME280;20346;52.702;16.886;2022-09-03T15:16:52;101249.61;;;21.41;36.93
34073;BME280;20346;52.702;16.886;2022-09-03T15:20:02;101255.27;;;21.42;36.93
34073;BME280;20346;52.702;16.886;2022-09-03T15:23:29;101256.19;;;21.41;36.92
34073;BME280;20346;52.702;16.886;2022-09-03T15:30:17;101246.44;;;21.35;36.90
34073;BME280;20346;52.702;16.886;2022-09-03T15:33:18;101245.85;;;21.30;36.87
34073;BME280;20346;52.702;16.886;2022-09-03T15:36:14;101249.91;;;21.18;36.76
34073;BME280;20346;52.702;16.886;2022-09-03T15:39:02;101248.98;;;21.10;36.87
34073;BME280;20346;52.702;16.886;2022-09-03T15:41:58;101243.09;;;21.05;36.85
34073;BME280;20346;52.702;16.886;2022-09-03T15:44:55;101238.84;;;21.03;36.82
34073;BME280;20346;52.702;16.886;2022-09-03T15:47:54;101237.52;;;21.03;36.90
34073;BME280;20346;52.702;16.886;2022-09-03T15:50:52;101243.95;;;21.06;36.94
34073;BME280;20346;52.702;16.886;2022-09-03T15:53:57;101237.77;;;21.07;36.97
34073;BME280;20346;52.702;16.886;2022-09-03T15:57:09;101245.65;;;21.07;37.04
34073;BME280;20346;52.702;16.886;2022-09-03T16:00:10;101242.70;;;21.04;37.08
34073;BME280;20346;52.702;16.886;2022-09-03T16:03:10;101239.45;;;20.99;37.09
34073;BME280;20346;52.702;16.886;2022-09-03T16:06:02;101242.38;;;20.93;37.17
34073;BME280;20346;52.702;16.886;2022-09-03T16:09:01;101243.53;;;20.88;37.23
34073;BME280;20346;52.702;16.886;2022-09-03T16:12:13;101255.19;;;20.82;37.25
34073;BME280;20346;52.702;16.886;2022-09-03T16:14:52;101252.43;;;20.76;37.23
34073;BME280;20346;52.702;16.886;2022-09-03T16:17:56;101258.69;;;20.74;37.24
34073;BME280;20346;52.702;16.886;2022-09-03T16:30:00;101254.02;;;20.62;37.39
34073;BME280;20346;52.702;16.886;2022-09-03T16:39:15;101257.28;;;20.48;37.56
34073;BME280;20346;52.702;16.886;2022-09-03T16:42:09;101254.02;;;20.43;37.64
34073;BME280;20346;52.702;16.886;2022-09-03T16:45:10;101256.12;;;20.35;37.73
34073;BME280;20346;52.702;16.886;2022-09-03T16:48:14;101255.19;;;20.27;37.74
34073;BME280;20346;52.702;16.886;2022-09-03T16:57:34;101254.66;;;20.00;37.95
34073;BME280;20346;52.702;16.886;2022-09-03T17:00:21;101262.03;;;19.92;37.97
34073;BME280;20346;52.702;16.886;2022-09-03T17:09:56;101260.31;;;19.72;38.24
34073;BME280;20346;52.702;16.886;2022-09-03T17:16:03;101262.80;;;19.55;38.34
34073;BME280;20346;52.702;16.886;2022-09-03T17:19:12;101265.66;;;19.49;38.41
34073;BME280;20346;52.702;16.886;2022-09-03T17:29:12;101274.23;;;19.32;38.68
34073;BME280;20346;52.702;16.886;2022-09-03T17:35:37;101268.67;;;19.20;38.81
34073;BME280;20346;52.702;16.886;2022-09-03T17:41:54;101279.33;;;19.05;39.01
34073;BME280;20346;52.702;16.886;2022-09-03T17:48:07;101283.80;;;18.91;39.12
34073;BME280;20346;52.702;16.886;2022-09-03T17:51:08;101283.53;;;18.87;39.21
34073;BME280;20346;52.702;16.886;2022-09-03T17:54:04;101285.54;;;18.80;39.29
34073;BME280;20346;52.702;16.886;2022-09-03T17:57:14;101291.48;;;18.74;39.39
34073;BME280;20346;52.702;16.886;2022-09-03T18:00:04;101297.84;;;18.68;39.46
34073;BME280;20346;52.702;16.886;2022-09-03T18:03:11;101297.70;;;18.60;39.64
34073;BME280;20346;52.702;16.886;2022-09-03T18:06:25;101297.99;;;18.52;39.61
34073;BME280;20346;52.702;16.886;2022-09-03T18:09:25;101296.00;;;18.47;39.72
34073;BME280;20346;52.702;16.886;2022-09-03T18:18:56;101308.52;;;18.27;39.93
34073;BME280;20346;52.702;16.886;2022-09-03T18:21:49;101311.05;;;18.18;39.95
34073;BME280;20346;52.702;16.886;2022-09-03T18:24:58;101314.40;;;18.10;40.05
34073;BME280;20346;52.702;16.886;2022-09-03T18:28:04;101316.44;;;18.02;40.16
34073;BME280;20346;52.702;16.886;2022-09-03T18:31:14;101315.39;;;17.95;40.17
34073;BME280;20346;52.702;16.886;2022-09-03T18:34:21;101321.75;;;17.88;40.21
34073;BME280;20346;52.702;16.886;2022-09-03T18:37:27;101331.68;;;17.78;40.32